Time;durP1;ratioP1;P1;durP2;ratioP2;P2;SDS_P1;SDS_P2;PMS_P1;PMS_P2;Temp;Humidity;BMP_temperature;BMP_pressure;BME280_temperature;BME280_humidity;BME280_pressure;Samples;Min_cycle;Max_cycle;Signal;HPM_P1;HPM_P2
2021/10/22 00:00:42;;;;;;;13.50;4.80;;;;;;;11.94;75.08;98943.54;27241;1216;3058798;-72
2021/10/22 00:03:11;;;;;;;9.60;5.30;;;;;;;12.05;74.69;98945.05;27251;1216;3026409;-68
2021/10/22 00:05:41;;;;;;;18.20;6.40;;;;;;;11.91;74.87;98949.58;27233;1216;3053228;-67
2021/10/22 00:08:10;;;;;;;13.40;4.80;;;;;;;11.79;75.54;98952.73;27206;1216;3028558;-73
2021/10/22 00:10:39;;;;;;;10.00;4.60;;;;;;;11.76;75.67;98958.34;27260;1216;3053907;-70
2021/10/22 00:13:09;;;;;;;8.50;4.20;;;;;;;11.74;76.10;98958.85;27203;1216;3026133;-67
2021/10/22 00:15:41;;;;;;;10.90;4.70;;;;;;;12.01;75.38;98958.45;27230;1216;3049088;-68
2021/10/22 00:18:10;;;;;;;15.60;5.40;;;;;;;12.13;74.65;98954.80;27235;1216;3029136;-67
2021/10/22 00:20:39;;;;;;;11.00;5.20;;;;;;;12.02;74.96;98941.36;27201;1216;3067931;-67
2021/10/22 00:23:09;;;;;;;11.00;6.00;;;;;;;12.00;75.18;98952.02;27245;1216;3026198;-66
2021/10/22 00:25:38;;;;;;;10.90;3.40;;;;;;;11.85;75.57;98947.52;27252;1209;3025746;-67
2021/10/22 00:28:07;;;;;;;14.40;4.70;;;;;;;12.11;75.12;98940.69;27195;1216;3067284;-69
2021/10/22 00:30:36;;;;;;;8.80;4.90;;;;;;;12.48;73.75;98946.29;27211;1216;3026102;-64
2021/10/22 00:33:05;;;;;;;13.90;5.00;;;;;;;12.40;73.48;98936.21;27222;1216;3048920;-70
2021/10/22 00:35:35;;;;;;;9.20;5.50;;;;;;;12.32;73.89;98944.91;27191;1216;3026023;-67
2021/10/22 00:38:04;;;;;;;10.10;5.30;;;;;;;12.04;75.11;98946.85;27219;1218;3025860;-69
2021/10/22 00:40:33;;;;;;;9.10;3.80;;;;;;;12.09;74.88;98946.80;27235;1216;3050580;-63
2021/10/22 00:43:02;;;;;;;12.50;5.00;;;;;;;12.40;74.15;98943.44;27227;1216;3026477;-66
2021/10/22 00:45:31;;;;;;;11.50;5.40;;;;;;;12.58;73.34;98948.41;27208;1216;3052446;-66
2021/10/22 00:48:00;;;;;;;11.80;5.80;;;;;;;12.30;74.24;98943.45;27248;1216;3026083;-69
2021/10/22 00:50:29;;;;;;;17.10;6.80;;;;;;;12.23;74.39;98950.11;27239;1216;3026331;-66
2021/10/22 00:52:59;;;;;;;12.10;6.60;;;;;;;11.94;75.81;98945.28;27230;1216;3056473;-69
2021/10/22 00:55:29;;;;;;;10.50;4.70;;;;;;;11.82;76.47;98943.01;27197;1216;3027306;-67
2021/10/22 00:57:58;;;;;;;11.50;5.80;;;;;;;12.20;75.36;98942.30;27207;1216;3028188;-67
2021/10/22 01:00:29;;;;;;;9.20;5.20;;;;;;;12.48;74.02;98941.91;27244;1217;3026046;-68
2021/10/22 01:02:59;;;;;;;10.00;5.90;;;;;;;12.42;74.01;98941.35;27227;1216;3026407;-70
2021/10/22 01:05:28;;;;;;;10.20;5.70;;;;;;;12.05;75.52;98935.03;27244;1216;3027446;-66
2021/10/22 01:07:57;;;;;;;11.20;5.40;;;;;;;11.92;76.14;98937.73;27211;1216;3026410;-66
2021/10/22 01:10:26;;;;;;;9.20;4.30;;;;;;;11.92;76.35;98942.98;27199;1216;3051535;-65
2021/10/22 01:12:56;;;;;;;12.20;5.70;;;;;;;12.29;74.93;98937.08;27223;1216;3026485;-69
2021/10/22 01:15:25;;;;;;;11.60;5.90;;;;;;;12.45;74.21;98937.25;27223;1216;3047842;-64
2021/10/22 01:17:55;;;;;;;12.20;5.90;;;;;;;12.39;74.66;98939.83;27204;1216;3027980;-66
2021/10/22 01:20:24;;;;;;;11.10;6.60;;;;;;;12.29;74.76;98927.77;27189;1218;3070072;-65
2021/10/22 01:22:55;;;;;;;11.90;5.90;;;;;;;12.00;76.09;98942.23;27210;1216;3026030;-71
2021/10/22 01:25:26;;;;;;;9.20;4.70;;;;;;;12.11;76.11;98935.62;27262;1216;3028074;-70
2021/10/22 01:27:56;;;;;;;11.90;6.10;;;;;;;12.36;75.00;98935.84;27206;1216;3070650;-72
2021/10/22 01:30:26;;;;;;;12.80;6.00;;;;;;;12.45;74.74;98935.15;27244;1216;3026091;-65
2021/10/22 01:33:08;;;;;;;15.40;7.00;;;;;;;12.59;73.84;98948.46;27239;1216;3053034;-66
2021/10/22 01:35:37;;;;;;;12.80;6.10;;;;;;;12.23;75.56;98947.02;27242;1216;3071310;-65
2021/10/22 01:38:06;;;;;;;8.80;4.90;;;;;;;12.23;75.51;98936.47;27220;1216;3026085;-70
2021/10/22 01:40:35;;;;;;;9.10;5.10;;;;;;;12.75;74.15;98940.59;27207;1216;3050527;-71
2021/10/22 01:43:04;;;;;;;12.30;6.70;;;;;;;12.75;73.84;98941.28;27194;1216;3028658;-66
2021/10/22 01:45:33;;;;;;;10.60;5.90;;;;;;;12.46;74.70;98946.46;27241;1216;3054788;-66
2021/10/22 01:48:02;;;;;;;15.50;6.80;;;;;;;12.47;74.86;98933.08;27247;1216;3026235;-72
2021/10/22 01:50:33;;;;;;;11.30;6.30;;;;;;;12.45;74.84;98941.66;27207;1216;3051658;-66
2021/10/22 01:53:02;;;;;;;13.10;4.90;;;;;;;12.35;75.24;98939.58;27212;1216;3028212;-68
2021/10/22 01:55:31;;;;;;;13.00;5.30;;;;;;;12.49;75.27;98933.66;27262;1216;3026056;-68
2021/10/22 01:58:02;;;;;;;17.00;5.90;;;;;;;12.48;75.48;98945.08;27210;1216;3051135;-67
2021/10/22 02:00:31;;;;;;;12.60;6.80;;;;;;;12.67;74.61;98940.33;27234;1216;3026028;-66
2021/10/22 02:03:00;;;;;;;12.80;6.70;;;;;;;12.53;75.04;98935.60;27199;1216;3027522;-67
2021/10/22 02:05:29;;;;;;;9.30;4.10;;;;;;;12.25;76.05;98937.56;27185;1216;3049186;-61
2021/10/22 02:07:58;;;;;;;16.60;5.60;;;;;;;12.55;75.54;98943.67;27207;1216;3025921;-72
2021/10/22 02:10:31;;;;;;;14.10;6.80;;;;;;;12.88;74.14;98934.66;27205;1216;3059778;-68
2021/10/22 02:13:01;;;;;;;13.20;6.80;;;;;;;12.57;75.09;98934.91;27231;1210;3026002;-66
2021/10/22 02:15:30;;;;;;;10.60;5.90;;;;;;;12.34;76.17;98937.95;27185;1216;3052516;-70
2021/10/22 02:17:59;;;;;;;9.80;6.10;;;;;;;12.25;76.70;98941.41;27224;1216;3027178;-69
2021/10/22 02:20:28;;;;;;;11.50;5.10;;;;;;;12.25;76.98;98948.95;27238;1216;3027463;-72
2021/10/22 02:22:57;;;;;;;11.50;5.10;;;;;;;12.53;75.81;98940.66;27221;1216;3052327;-66
2021/10/22 02:25:26;;;;;;;12.10;5.30;;;;;;;12.56;75.51;98935.20;27194;1216;3026912;-71
2021/10/22 02:27:55;;;;;;;14.30;6.40;;;;;;;12.46;76.04;98933.69;27208;1216;3054247;-65
2021/10/22 02:30:25;;;;;;;10.40;6.30;;;;;;;12.39;76.23;98937.04;27205;1216;3026248;-67
2021/10/22 02:32:53;;;;;;;13.60;5.10;;;;;;;12.26;76.80;98936.90;27206;1216;3028670;-71
2021/10/22 02:35:24;;;;;;;16.50;7.60;;;;;;;12.68;75.61;98932.85;27206;1216;3026280;-70
2021/10/22 02:37:53;;;;;;;16.90;7.30;;;;;;;12.70;75.39;98928.70;27211;1216;3028094;-69
2021/10/22 02:40:22;;;;;;;16.10;6.90;;;;;;;12.65;74.97;98936.10;27228;1216;3055330;-67
2021/10/22 02:42:51;;;;;;;14.50;8.30;;;;;;;12.51;75.88;98933.66;27216;1216;3026553;-65
2021/10/22 02:45:20;;;;;;;14.90;5.80;;;;;;;12.37;76.54;98935.80;27227;1216;3028088;-67
2021/10/22 02:47:50;;;;;;;14.30;5.40;;;;;;;12.40;76.58;98938.01;27247;1216;3058156;-67
2021/10/22 02:50:21;;;;;;;15.80;6.70;;;;;;;12.84;74.94;98932.29;27218;1216;3027512;-65
2021/10/22 02:52:50;;;;;;;14.70;6.40;;;;;;;12.90;74.58;98916.06;27235;1216;3054093;-68
2021/10/22 02:55:19;;;;;;;13.90;6.70;;;;;;;12.65;75.27;98920.10;27247;1216;3025668;-69
2021/10/22 02:57:48;;;;;;;12.60;7.00;;;;;;;12.51;76.32;98913.07;27247;1216;3050876;-71
2021/10/22 03:00:17;;;;;;;14.10;4.90;;;;;;;12.24;77.30;98900.21;27228;1209;3025894;-69
2021/10/22 03:02:46;;;;;;;16.40;6.50;;;;;;;12.63;75.91;98887.39;27208;1216;3048481;-69
2021/10/22 03:05:16;;;;;;;12.50;6.90;;;;;;;12.74;75.48;98883.38;27217;1216;3026050;-70
2021/10/22 03:07:45;;;;;;;18.50;8.60;;;;;;;12.76;75.37;98881.77;27269;1216;3025973;-69
2021/10/22 03:10:14;;;;;;;21.50;9.30;;;;;;;12.37;76.89;98884.09;27251;1216;3028501;-69
2021/10/22 03:12:44;;;;;;;19.10;6.40;;;;;;;12.31;77.26;98874.95;27201;1216;3026549;-72
2021/10/22 03:15:13;;;;;;;11.10;6.90;;;;;;;12.87;75.38;98868.42;27220;1216;3026493;-70
2021/10/22 03:17:43;;;;;;;17.40;7.50;;;;;;;12.79;75.03;98881.23;27230;1216;3058318;-66
2021/10/22 03:20:12;;;;;;;17.10;6.70;;;;;;;12.71;75.48;98881.20;27207;1216;3026232;-68
2021/10/22 03:22:42;;;;;;;16.20;7.20;;;;;;;12.57;75.99;98884.00;27225;1216;3026594;-67
2021/10/22 03:25:12;;;;;;;16.20;6.60;;;;;;;12.46;76.48;98896.48;27243;1208;3055269;-65
2021/10/22 03:27:42;;;;;;;13.20;5.10;;;;;;;12.50;76.82;98898.05;27237;1216;3028606;-68
2021/10/22 03:30:11;;;;;;;15.10;5.60;;;;;;;12.79;75.63;98891.03;27244;1216;3051636;-65
2021/10/22 03:32:40;;;;;;;13.30;6.20;;;;;;;12.72;75.41;98883.89;27221;1216;3027815;-68
2021/10/22 03:35:12;;;;;;;14.60;6.90;;;;;;;12.51;76.32;98891.30;27200;1216;3051933;-67
2021/10/22 03:37:41;;;;;;;14.80;6.90;;;;;;;12.44;76.65;98892.70;27231;1216;3028230;-65
2021/10/22 03:40:10;;;;;;;15.10;5.00;;;;;;;12.47;76.49;98892.84;27241;1216;3048469;-70
2021/10/22 03:42:42;;;;;;;14.30;5.10;;;;;;;12.70;75.98;98896.89;27181;1216;3026556;-67
2021/10/22 03:45:11;;;;;;;15.00;6.60;;;;;;;12.90;75.04;98897.39;27218;1216;3027342;-69
2021/10/22 03:47:42;;;;;;;17.60;6.60;;;;;;;12.70;75.76;98905.96;27233;1216;3025905;-67
2021/10/22 03:50:13;;;;;;;17.30;7.20;;;;;;;12.84;75.22;98913.89;27176;1216;3028034;-72
2021/10/22 03:52:42;;;;;;;11.50;5.80;;;;;;;12.60;76.04;98911.14;27213;1216;3026288;-71
2021/10/22 03:55:12;;;;;;;8.50;4.70;;;;;;;12.56;76.44;98909.67;27217;1216;3026828;-66
2021/10/22 03:57:42;;;;;;;12.50;5.70;;;;;;;12.62;76.22;98912.92;27251;1216;3026961;-70
2021/10/22 04:00:12;;;;;;;18.30;7.50;;;;;;;12.92;74.83;98910.39;27192;1216;3025947;-68
2021/10/22 04:02:41;;;;;;;18.00;7.10;;;;;;;12.93;74.55;98912.44;27222;1216;3026890;-64
2021/10/22 04:05:12;;;;;;;17.00;7.10;;;;;;;12.71;75.33;98920.65;27235;1216;3026598;-66
2021/10/22 04:07:44;;;;;;;10.60;5.20;;;;;;;12.70;75.49;98932.70;27220;1216;3026003;-65
2021/10/22 04:10:14;;;;;;;16.70;6.60;;;;;;;13.05;74.52;98935.05;27181;1216;3026278;-67
2021/10/22 04:12:47;;;;;;;15.00;5.60;;;;;;;13.01;74.46;98940.10;27203;1216;3026216;-66
2021/10/22 04:15:16;;;;;;;15.50;7.10;;;;;;;13.02;74.20;98951.95;27262;1216;3026093;-69
2021/10/22 04:18:04;;;;;;;14.40;8.00;;;;;;;12.70;74.90;98950.58;27188;1216;3051886;-68
2021/10/22 04:20:33;;;;;;;13.00;5.90;;;;;;;12.38;76.36;98958.88;27255;1216;3026421;-72
2021/10/22 04:23:04;;;;;;;13.70;6.30;;;;;;;12.61;75.74;98955.91;27220;1216;3026056;-69
2021/10/22 04:25:34;;;;;;;17.60;8.10;;;;;;;12.91;74.21;98958.15;27203;1216;3026776;-66
2021/10/22 04:28:04;;;;;;;21.50;7.50;;;;;;;12.72;74.89;98970.34;27253;1216;3026063;-67
2021/10/22 04:30:33;;;;;;;21.50;8.10;;;;;;;12.64;74.74;98964.29;27234;1216;3049788;-65
2021/10/22 04:33:03;;;;;;;24.10;9.40;;;;;;;12.37;75.98;98957.55;27247;1216;3026188;-63
2021/10/22 04:35:31;;;;;;;15.50;6.60;;;;;;;12.44;76.02;98964.52;27259;1216;3051666;-65
2021/10/22 04:40:30;;;;;;;16.20;7.50;;;;;;;12.92;74.22;98967.23;27233;1209;3027044;-69
2021/10/22 04:41:03;;;;;;;20.10;8.30;;;;;;;12.97;73.78;98970.83;27181;1216;3051535;-70
2021/10/22 04:43:32;;;;;;;20.40;9.00;;;;;;;12.97;73.12;98968.21;27247;1216;3027443;-72
2021/10/22 04:46:01;;;;;;;22.80;9.40;;;;;;;12.70;73.97;98975.41;27223;1216;3028094;-69
2021/10/22 04:48:30;;;;;;;13.00;6.30;;;;;;;12.37;75.51;98983.31;27212;1216;3051974;-63
2021/10/22 04:50:59;;;;;;;17.30;8.80;;;;;;;12.75;74.39;98980.11;27228;1216;3025768;-68
2021/10/22 04:53:28;;;;;;;14.90;7.80;;;;;;;13.05;73.20;98977.77;27250;1216;3054822;-65
2021/10/22 04:55:57;;;;;;;16.70;8.20;;;;;;;12.88;73.16;98977.53;27214;1209;3026412;-69
2021/10/22 04:58:26;;;;;;;15.00;7.50;;;;;;;12.66;73.87;98989.55;27237;1216;3052490;-69
2021/10/22 05:00:55;;;;;;;21.70;7.90;;;;;;;12.66;73.92;98993.31;27243;1216;3026340;-67
2021/10/22 05:03:24;;;;;;;13.30;6.00;;;;;;;12.45;74.77;98993.51;27251;1216;3053863;-68
2021/10/22 05:05:53;;;;;;;16.80;8.10;;;;;;;12.83;73.48;98982.30;27220;1216;3026673;-74
2021/10/22 05:08:22;;;;;;;18.00;8.50;;;;;;;13.02;72.53;98975.43;27209;1216;3026483;-71
2021/10/22 05:10:51;;;;;;;19.90;9.10;;;;;;;12.58;73.59;98990.02;27205;1216;3050554;-67
2021/10/22 05:13:20;;;;;;;18.30;9.60;;;;;;;12.59;73.77;98986.63;27234;1216;3026384;-70
2021/10/22 05:15:50;;;;;;;18.50;9.40;;;;;;;12.34;74.94;98984.27;27216;1216;3048175;-68
2021/10/22 05:18:18;;;;;;;15.60;6.60;;;;;;;12.41;74.95;98991.79;27247;1216;3027751;-71
2021/10/22 05:20:47;;;;;;;13.60;6.80;;;;;;;12.83;73.43;98996.59;27242;1216;3067405;-69
2021/10/22 05:23:16;;;;;;;19.00;8.10;;;;;;;12.75;73.51;98991.66;27216;1216;3027424;-67
2021/10/22 05:25:46;;;;;;;18.80;7.60;;;;;;;12.84;73.14;98998.61;27239;1216;3050470;-64
2021/10/22 05:28:16;;;;;;;15.30;7.40;;;;;;;12.75;73.27;98993.83;27283;1208;3026967;-66
2021/10/22 05:30:45;;;;;;;17.90;8.60;;;;;;;12.73;73.33;98993.26;27237;1216;3054286;-67
2021/10/22 05:33:15;;;;;;;13.80;5.90;;;;;;;12.34;74.98;99002.74;27235;1216;3026320;-70
2021/10/22 05:35:44;;;;;;;20.40;7.70;;;;;;;12.82;73.79;98987.48;27204;1216;3049202;-66
2021/10/22 05:38:13;;;;;;;19.50;8.10;;;;;;;12.95;72.80;98990.65;27274;1216;3026170;-67
2021/10/22 05:40:43;;;;;;;18.10;9.00;;;;;;;12.83;73.03;98997.81;27236;1216;3055617;-71
2021/10/22 05:43:11;;;;;;;18.30;7.90;;;;;;;12.65;73.46;99004.75;27240;1216;3026206;-66
2021/10/22 05:45:40;;;;;;;22.10;8.60;;;;;;;12.57;74.05;99003.43;27234;1216;3053513;-69
2021/10/22 05:48:10;;;;;;;13.80;6.70;;;;;;;12.34;74.91;99008.53;27177;1216;3026530;-66
2021/10/22 05:50:41;;;;;;;13.60;6.20;;;;;;;12.86;72.94;99012.46;27193;1216;3027283;-72
2021/10/22 05:53:10;;;;;;;15.10;7.60;;;;;;;13.20;71.76;99011.81;27236;1216;3026507;-67
2021/10/22 05:55:39;;;;;;;13.10;7.80;;;;;;;13.15;71.55;99009.86;27211;1216;3027359;-68
2021/10/22 05:58:08;;;;;;;25.10;8.90;;;;;;;12.67;73.09;99011.98;27238;1216;3026245;-71
2021/10/22 06:00:37;;;;;;;14.90;8.50;;;;;;;12.57;73.96;99003.09;27286;1216;3052890;-70
2021/10/22 06:03:06;;;;;;;15.70;5.50;;;;;;;12.41;74.34;99005.73;27250;1216;3026211;-67
2021/10/22 06:05:38;;;;;;;14.40;7.60;;;;;;;12.68;73.52;98988.39;27189;1216;3026495;-69
2021/10/22 06:08:09;;;;;;;23.20;8.20;;;;;;;12.90;72.46;98979.34;27245;1216;3026862;-66
2021/10/22 06:10:38;;;;;;;27.30;10.30;;;;;;;12.66;73.14;98981.01;27221;1216;3026395;-66
2021/10/22 06:13:10;;;;;;;28.60;9.50;;;;;;;12.65;73.44;98980.52;27230;1216;3026585;-68
2021/10/22 06:15:39;;;;;;;32.00;11.40;;;;;;;12.51;73.91;98988.95;27223;1216;3026858;-66
2021/10/22 06:18:09;;;;;;;20.70;9.70;;;;;;;12.55;74.14;98993.27;27208;1216;3027250;-67
2021/10/22 06:20:45;;;;;;;23.10;9.70;;;;;;;12.81;73.20;99005.51;27240;1216;3051417;-65
2021/10/22 06:26:01;;;;;;;19.40;8.70;;;;;;;13.26;71.32;99027.17;27224;1216;3049853;-68
2021/10/22 06:28:30;;;;;;;21.40;9.90;;;;;;;13.08;71.98;99032.44;27199;1216;3025982;-68
2021/10/22 06:31:00;;;;;;;19.70;8.20;;;;;;;12.73;73.23;99037.01;27226;1216;3057883;-65
2021/10/22 06:33:28;;;;;;;16.80;6.50;;;;;;;12.86;73.30;99049.02;27229;1209;3026847;-69
2021/10/22 06:35:58;;;;;;;22.00;7.80;;;;;;;13.53;71.03;99043.85;27238;1216;3054327;-71
2021/10/22 06:38:27;;;;;;;17.90;7.90;;;;;;;13.66;70.09;99046.86;27200;1216;3026338;-69
2021/10/22 06:40:56;;;;;;;17.50;7.90;;;;;;;13.76;69.89;99055.94;27259;1216;3026438;-69
2021/10/22 06:43:26;;;;;;;24.00;8.10;;;;;;;13.61;70.20;99055.55;27203;1216;3052741;-69
2021/10/22 06:45:55;;;;;;;17.90;7.80;;;;;;;13.49;70.48;99058.98;27223;1216;3027637;-68
2021/10/22 06:48:24;;;;;;;21.00;8.30;;;;;;;13.15;71.53;99062.48;27254;1216;3026456;-72
2021/10/22 06:50:54;;;;;;;12.80;6.40;;;;;;;13.04;72.50;99072.14;27207;1216;3054579;-69
2021/10/22 06:53:23;;;;;;;13.80;9.00;;;;;;;13.38;71.54;99068.95;27223;1216;3028220;-73
2021/10/22 06:55:52;;;;;;;19.80;7.90;;;;;;;13.83;69.88;99064.70;27223;1216;3027537;-71
2021/10/22 06:58:21;;;;;;;25.70;8.00;;;;;;;13.56;70.66;99078.16;27221;1216;3053992;-67
2021/10/22 07:00:50;;;;;;;24.10;9.40;;;;;;;13.52;70.76;99083.52;27249;1216;3025955;-73
2021/10/22 07:03:22;;;;;;;19.60;8.70;;;;;;;13.41;71.11;99085.64;27252;1216;3051171;-70
2021/10/22 07:08:27;;;;;;;22.10;6.00;;;;;;;13.33;71.61;99088.85;27235;1216;3055827;-68
2021/10/22 07:10:56;;;;;;;15.30;6.60;;;;;;;13.66;70.11;99085.77;27184;1216;3028314;-69
2021/10/22 07:13:25;;;;;;;18.30;8.40;;;;;;;13.94;69.21;99070.36;27227;1216;3053621;-71
2021/10/22 07:15:54;;;;;;;17.20;8.70;;;;;;;13.78;69.35;99074.29;27242;1216;3026167;-69
2021/10/22 07:18:23;;;;;;;20.60;8.40;;;;;;;14.08;68.14;99074.33;27249;1216;3053605;-74
2021/10/22 07:20:53;;;;;;;21.20;8.60;;;;;;;13.99;68.64;99075.41;27237;1216;3026371;-70
2021/10/22 07:23:22;;;;;;;16.60;8.20;;;;;;;13.75;69.43;99080.49;27274;1216;3047748;-70
2021/10/22 07:25:52;;;;;;;20.20;7.00;;;;;;;13.62;70.24;99083.79;27206;1216;3026474;-70
2021/10/22 07:28:21;;;;;;;20.40;7.00;;;;;;;14.56;67.94;99082.42;27242;1216;3026270;-71
2021/10/22 07:30:52;;;;;;;20.30;7.70;;;;;;;14.75;66.20;99074.15;27262;1216;3048895;-72
2021/10/22 07:33:21;;;;;;;23.00;7.40;;;;;;;14.64;66.72;99075.53;27241;1216;3026071;-66
2021/10/22 07:35:50;;;;;;;15.30;7.60;;;;;;;14.39;67.44;99076.59;27246;1218;3026630;-69
2021/10/22 07:38:19;;;;;;;21.50;8.40;;;;;;;14.48;67.26;99077.44;27231;1216;3047840;-73
2021/10/22 07:40:48;;;;;;;21.70;8.90;;;;;;;14.52;67.14;99078.08;27236;1216;3026467;-70
2021/10/22 07:43:18;;;;;;;17.60;8.70;;;;;;;14.33;67.51;99078.10;27194;1216;3066039;-71
2021/10/22 07:45:47;;;;;;;18.70;8.90;;;;;;;14.28;67.88;99080.45;27224;1216;3027071;-68
2021/10/22 07:48:16;;;;;;;20.30;6.30;;;;;;;14.37;67.86;99092.36;27267;1216;3053280;-72
2021/10/22 07:50:45;;;;;;;14.80;6.40;;;;;;;14.94;66.07;99087.73;27244;1216;3026255;-71
2021/10/22 07:53:14;;;;;;;20.00;8.00;;;;;;;15.49;64.03;99082.29;27221;1216;3051308;-69
2021/10/22 07:55:44;;;;;;;19.70;7.90;;;;;;;15.51;63.80;99084.41;27245;1209;3025990;-73
2021/10/22 07:58:13;;;;;;;16.50;8.00;;;;;;;15.33;63.83;99090.70;27219;1216;3027791;-69
2021/10/22 08:00:42;;;;;;;16.90;8.00;;;;;;;15.31;63.97;99095.09;27238;1216;3028398;-69
2021/10/22 08:03:12;;;;;;;23.40;9.40;;;;;;;15.13;63.99;99086.27;27278;1216;3052385;-71
2021/10/22 08:05:41;;;;;;;29.80;9.30;;;;;;;15.08;64.15;99089.65;27282;1216;3026797;-70
2021/10/22 08:08:10;;;;;;;22.90;8.90;;;;;;;14.99;64.32;99086.52;27308;1216;3052443;-67
2021/10/22 08:10:40;;;;;;;24.30;10.20;;;;;;;14.89;64.99;99090.73;27326;1216;3025633;-72
2021/10/22 08:13:11;;;;;;;20.10;9.10;;;;;;;14.73;65.73;99095.96;27214;1216;3026793;-67
2021/10/22 08:15:41;;;;;;;22.80;10.70;;;;;;;14.97;64.02;99097.67;27251;1216;3026177;-72
2021/10/22 08:18:10;;;;;;;21.30;9.60;;;;;;;14.85;64.64;99094.43;27350;1209;3025973;-66
2021/10/22 08:20:47;;;;;;;22.60;10.40;;;;;;;14.87;64.51;99096.75;27272;1216;3027114;-70
2021/10/22 08:23:17;;;;;;;22.10;10.20;;;;;;;14.87;64.10;99093.36;27321;1216;3054939;-74
2021/10/22 08:25:48;;;;;;;20.40;9.30;;;;;;;14.97;64.11;99094.64;27262;1216;3026722;-68
2021/10/22 08:28:18;;;;;;;25.50;10.10;;;;;;;15.05;63.59;99097.00;27326;1209;3026048;-71
2021/10/22 08:30:55;;;;;;;21.50;9.80;;;;;;;15.08;63.81;99095.33;27238;1216;3058519;-67
2021/10/22 08:33:25;;;;;;;17.70;7.10;;;;;;;15.25;63.64;99102.91;27299;1216;3048743;-63
2021/10/22 08:35:54;;;;;;;18.30;8.20;;;;;;;15.94;61.55;99095.00;27287;1216;3027206;-70
2021/10/22 08:38:24;;;;;;;20.90;8.50;;;;;;;16.20;60.51;99098.52;27254;1216;3028514;-72
2021/10/22 08:40:54;;;;;;;17.10;9.00;;;;;;;16.25;60.20;99096.09;27253;1216;3048539;-68
2021/10/22 08:43:25;;;;;;;23.30;9.10;;;;;;;16.30;59.75;99100.64;27273;1216;3027395;-69
2021/10/22 08:46:00;;;;;;;23.90;9.30;;;;;;;16.32;59.25;99110.70;27280;1216;3025950;-72
2021/10/22 08:48:29;;;;;;;19.40;8.60;;;;;;;16.44;58.57;99118.55;27276;1216;3069490;-70
2021/10/22 08:50:58;;;;;;;21.80;10.10;;;;;;;16.39;58.86;99121.54;27274;1216;3029135;-64
2021/10/22 08:53:28;;;;;;;25.20;8.90;;;;;;;16.21;59.17;99114.52;27264;1209;3025971;-72
2021/10/22 08:55:58;;;;;;;19.30;9.30;;;;;;;16.11;59.39;99110.30;27245;1216;3067952;-76
2021/10/22 08:58:27;;;;;;;20.80;10.10;;;;;;;16.14;59.51;99103.44;27320;1216;3026243;-67
2021/10/22 09:01:03;;;;;;;21.30;10.00;;;;;;;16.26;59.03;99114.56;27314;1216;3053031;-68
2021/10/22 09:03:39;;;;;;;19.40;10.60;;;;;;;16.29;58.28;99125.64;27241;1216;3026216;-71
2021/10/22 09:06:17;;;;;;;22.80;10.40;;;;;;;16.34;58.02;99110.12;27266;1216;3051280;-72
2021/10/22 09:08:46;;;;;;;21.70;9.70;;;;;;;16.46;57.77;99110.31;27253;1216;3025969;-71
2021/10/22 09:11:23;;;;;;;21.00;10.40;;;;;;;16.50;57.87;99108.67;27231;1209;3026435;-70
2021/10/22 09:14:18;;;;;;;23.90;11.00;;;;;;;16.43;57.86;99112.73;27248;1216;3049618;-67
2021/10/22 09:16:51;;;;;;;24.20;10.60;;;;;;;16.32;58.12;99102.34;27280;1216;3052084;-70
2021/10/22 09:19:35;;;;;;;20.80;10.10;;;;;;;16.33;58.57;99098.88;27241;1216;3051946;-73
2021/10/22 09:22:34;;;;;;;26.30;10.60;;;;;;;16.47;57.90;99087.23;27310;1216;3058626;-72
2021/10/22 09:25:07;;;;;;;22.70;10.50;;;;;;;16.57;57.26;99088.99;27171;1218;3053296;-64
2021/10/22 09:28:04;;;;;;;19.10;8.80;;;;;;;16.69;56.57;99089.77;27218;1218;3025943;-71
2021/10/22 09:30:37;;;;;;;19.90;10.10;;;;;;;16.86;55.84;99092.66;27193;1218;3051688;-69
2021/10/22 09:33:10;;;;;;;21.70;10.40;;;;;;;16.93;55.88;99094.16;27227;1218;3070802;-76
2021/10/22 09:35:52;;;;;;;23.30;10.10;;;;;;;17.03;55.41;99091.30;27226;1218;3028210;-71
2021/10/22 09:38:25;;;;;;;26.90;11.00;;;;;;;17.20;55.00;99091.30;27316;1218;3052871;-71
2021/10/22 09:40:58;;;;;;;21.10;10.80;;;;;;;17.32;54.49;99089.91;27260;1217;3026180;-68
2021/10/22 09:43:29;;;;;;;23.00;10.40;;;;;;;17.36;54.21;99087.70;27224;1218;3025979;-71
2021/10/22 09:46:08;;;;;;;27.20;11.50;;;;;;;17.38;54.22;99093.69;27231;1218;3026569;-68
2021/10/22 09:48:37;;;;;;;20.50;10.30;;;;;;;17.41;54.22;99084.91;27215;1218;3052241;-70
2021/10/22 09:51:27;;;;;;;22.00;11.10;;;;;;;17.54;53.89;99083.04;27243;1212;3026240;-70
2021/10/22 09:54:17;;;;;;;21.10;10.10;;;;;;;17.65;53.79;99088.65;27242;1218;3050519;-70
2021/10/22 09:56:53;;;;;;;20.20;11.00;;;;;;;17.73;52.90;99089.66;27199;1218;3053019;-67
2021/10/22 09:59:27;;;;;;;22.60;11.80;;;;;;;17.76;52.39;99091.84;27214;1218;3049572;-65
2021/10/22 10:01:57;;;;;;;;;;;;;;;17.60;52.69;99096.55;27303;1216;3067762;-76
2021/10/22 10:04:27;;;;;;;14.60;8.90;;;;;;;17.70;52.43;99087.67;27277;1216;3026424;-73
2021/10/22 10:06:58;;;;;;;34.10;10.80;;;;;;;17.86;52.00;99081.48;27348;1216;3026536;-71
2021/10/22 10:09:27;;;;;;;21.80;11.60;;;;;;;17.98;52.24;99082.48;27250;1216;3028836;-72
2021/10/22 10:12:00;;;;;;;22.00;10.40;;;;;;;18.09;51.74;99081.95;27256;1216;3025998;-70
2021/10/22 10:14:29;;;;;;;32.80;10.90;;;;;;;18.24;50.64;99079.83;27336;1216;3026134;-69
2021/10/22 10:17:00;;;;;;;26.40;11.70;;;;;;;18.28;50.62;99081.50;27313;1216;3026230;-74
2021/10/22 10:19:44;;;;;;;22.30;11.30;;;;;;;18.30;50.50;99078.11;27312;1216;3056663;-68
2021/10/22 10:22:15;;;;;;;23.70;11.60;;;;;;;18.23;50.62;99073.48;27326;1216;3049153;-69
2021/10/22 10:24:48;;;;;;;24.10;11.70;;;;;;;18.26;50.54;99079.06;27279;1216;3026087;-70
2021/10/22 10:27:19;;;;;;;24.40;11.20;;;;;;;18.27;50.86;99074.85;27309;1216;3049946;-68
2021/10/22 10:29:50;;;;;;;19.00;10.20;;;;;;;18.43;50.58;99073.81;27279;1216;3027185;-72
2021/10/22 10:32:20;;;;;;;24.80;10.80;;;;;;;18.66;49.56;99067.45;27300;1216;3026409;-71
2021/10/22 10:34:50;;;;;;;29.70;10.90;;;;;;;18.86;49.57;99075.74;27224;1216;3026534;-67
2021/10/22 10:37:39;;;;;;;21.60;10.20;;;;;;;18.93;48.88;99080.41;27281;1216;3026569;-75
2021/10/22 10:40:09;;;;;;;14.10;9.70;;;;;;;19.05;48.76;99080.39;27229;1216;3056317;-69
2021/10/22 10:42:44;;;;;;;21.20;10.30;;;;;;;19.08;48.33;99076.58;27277;1216;3025863;-71
2021/10/22 10:45:26;;;;;;;21.80;10.30;;;;;;;19.05;47.93;99090.17;27245;1216;3054343;-74
2021/10/22 10:48:09;;;;;;;25.30;10.60;;;;;;;19.05;47.64;99079.42;27238;1216;3054132;-70
2021/10/22 10:50:52;;;;;;;24.30;10.40;;;;;;;19.12;47.88;99081.48;27338;1216;3069033;-68
2021/10/22 10:53:33;;;;;;;27.00;10.80;;;;;;;19.08;48.39;99083.16;27306;1216;3048910;-68
2021/10/22 10:56:04;;;;;;;23.30;10.70;;;;;;;18.99;48.49;99082.98;27243;1216;3057043;-72
2021/10/22 10:58:44;;;;;;;23.30;9.60;;;;;;;19.02;48.65;99079.80;27219;1216;3025964;-71
2021/10/22 11:01:24;;;;;;;21.80;10.70;;;;;;;19.02;48.53;99075.98;27246;1216;3055901;-67
2021/10/22 11:03:54;;;;;;;23.90;10.40;;;;;;;18.98;48.00;99068.56;27270;1216;3049865;-73
2021/10/22 11:06:46;;;;;;;19.90;10.10;;;;;;;19.11;47.54;99066.35;27250;1212;3027022;-65
2021/10/22 11:09:17;;;;;;;27.70;10.80;;;;;;;19.11;47.47;99068.78;27247;1216;3052042;-74
2021/10/22 11:11:57;;;;;;;24.00;10.00;;;;;;;19.17;47.18;99067.64;27262;1216;3026126;-71
2021/10/22 11:14:26;;;;;;;21.20;9.80;;;;;;;19.18;47.33;99071.30;27209;1216;3050949;-72
2021/10/22 11:16:56;;;;;;;23.10;11.30;;;;;;;18.99;47.81;99074.15;27230;1209;3025903;-64
2021/10/22 11:19:42;;;;;;;26.70;10.90;;;;;;;18.89;47.74;99073.66;27209;1216;3070977;-68
2021/10/22 11:22:20;;;;;;;21.60;10.00;;;;;;;18.92;48.01;99073.75;27296;1209;3026640;-73
2021/10/22 11:24:50;;;;;;;23.50;10.90;;;;;;;19.17;47.65;99069.80;27315;1216;3054069;-68
2021/10/22 11:27:21;;;;;;;25.30;10.60;;;;;;;19.25;46.74;99071.11;27260;1216;3027859;-70
2021/10/22 11:29:52;;;;;;;20.40;9.20;;;;;;;19.35;46.81;99066.20;27378;1216;3025878;-73
2021/10/22 11:32:24;;;;;;;22.50;10.80;;;;;;;19.44;46.18;99072.73;27311;1216;3027701;-70